Time;durP1;ratioP1;P1;durP2;ratioP2;P2;SDS_P1;SDS_P2;PMS_P1;PMS_P2;Temp;Humidity;BMP_temperature;BMP_pressure;BME280_temperature;BME280_humidity;BME280_pressure;Samples;Min_cycle;Max_cycle;Signal;HPM_P1;HPM_P2
2022/04/23 06:01:34;;;;;;;76.28;41.03;;;;;;;;;;5373573;23;20110;-88
2022/04/23 06:04:01;;;;;;;75.72;41.70;;;;;;;;;;4930455;29;20055;-88
2022/04/23 06:06:28;;;;;;;82.05;43.03;;;;;;;;;;4926570;29;20563;-89
2022/04/23 06:08:56;;;;;;;78.93;42.95;;;;;;;;;;4935089;29;20583;-89
2022/04/23 06:11:23;;;;;;;73.32;42.03;;;;;;;;;;4934122;29;22900;-90
2022/04/23 06:13:50;;;;;;;72.03;40.88;;;;;;;;;;4935813;29;20587;-89
2022/04/23 06:16:16;;;;;;;73.35;41.10;;;;;;;;;;4934893;29;20075;-90
2022/04/23 06:18:43;;;;;;;76.82;40.30;;;;;;;;;;4931078;29;20075;-89
2022/04/23 06:21:10;;;;;;;80.20;41.28;;;;;;;;;;4907735;29;20059;-88
2022/04/23 06:23:37;;;;;;;73.50;40.67;;;;;;;;;;4917705;29;20072;-88
2022/04/23 06:26:04;;;;;;;80.43;40.83;;;;;;;;;;4934917;29;20528;-86
2022/04/23 06:28:30;;;;;;;73.15;41.38;;;;;;;;;;4934202;29;20464;-89
2022/04/23 06:30:57;;;;;;;76.13;41.72;;;;;;;;;;4928680;29;20060;-88
2022/04/23 06:33:23;;;;;;;83.60;42.20;;;;;;;;;;4907694;29;20524;-87
2022/04/23 06:35:50;;;;;;;73.85;39.83;;;;;;;;;;4918329;29;20058;-90
2022/04/23 06:38:17;;;;;;;68.90;38.20;;;;;;;;;;4934384;29;20071;-88
2022/04/23 06:40:43;;;;;;;68.13;40.53;;;;;;;;;;4933941;29;20111;-88
2022/04/23 06:43:10;;;;;;;71.65;39.95;;;;;;;;;;4933828;29;20139;-87
2022/04/23 06:45:37;;;;;;;75.93;39.92;;;;;;;;;;4934686;29;20094;-91
2022/04/23 06:48:04;;;;;;;78.88;41.50;;;;;;;;;;4917299;29;20047;-88
2022/04/23 06:50:35;;;;;;;73.35;39.92;;;;;;;;;;4916210;29;20043;-87
2022/04/23 06:53:03;;;;;;;77.97;40.40;;;;;;;;;;4934311;29;20143;-89
2022/04/23 06:55:30;;;;;;;79.18;40.70;;;;;;;;;;4932865;29;20576;-89
2022/04/23 06:57:57;;;;;;;69.95;38.67;;;;;;;;;;4934387;29;20106;-91
2022/04/23 07:00:24;;;;;;;69.35;37.78;;;;;;;;;;4933927;29;20214;-89
2022/04/23 07:02:57;;;;;;;67.85;37.63;;;;;;;;;;4934575;29;20043;-89
2022/04/23 07:05:24;;;;;;;69.05;38.22;;;;;;;;;;4933054;29;20592;-89
2022/04/23 07:07:59;;;;;;;71.05;37.88;;;;;;;;;;4933959;29;20139;-90
2022/04/23 07:10:27;;;;;;;66.47;37.30;;;;;;;;;;4934246;29;20130;-92
2022/04/23 07:12:55;;;;;;;71.27;37.40;;;;;;;;;;4935241;29;20090;-90
2022/04/23 07:15:23;;;;;;;69.80;37.00;;;;;;;;;;4932463;29;20051;-89
2022/04/23 07:17:51;;;;;;;73.63;37.43;;;;;;;;;;4933057;29;20103;-90
2022/04/23 07:20:18;;;;;;;70.28;36.97;;;;;;;;;;4934815;29;20079;-90
2022/04/23 07:25:35;;;;;;;70.00;35.40;;;;;;;;;;4925372;29;20521;-90
2022/04/23 07:28:03;;;;;;;62.92;36.22;;;;;;;;;;4912330;29;20130;-92
2022/04/23 07:30:30;;;;;;;69.20;36.30;;;;;;;;;;4918872;29;20051;-92
2022/04/23 07:33:00;;;;;;;65.50;37.28;;;;;;;;;;4917818;29;20080;-92
2022/04/23 07:38:19;;;;;;;65.70;34.40;;;;;;;;;;4926476;29;20051;-91
2022/04/23 07:40:48;;;;;;;65.40;33.97;;;;;;;;;;4930659;29;20055;-91
2022/04/23 07:43:15;;;;;;;60.53;31.77;;;;;;;;;;4930611;29;20477;-93
2022/04/23 07:45:44;;;;;;;62.72;33.55;;;;;;;;;;4928253;29;20074;-92
2022/04/23 07:48:12;;;;;;;53.95;32.10;;;;;;;;;;4915776;29;20867;-91
2022/04/23 07:50:40;;;;;;;68.45;33.47;;;;;;;;;;4907303;29;20052;-90
2022/04/23 07:53:11;;;;;;;63.47;33.42;;;;;;;;;;4927258;29;20062;-90
2022/04/23 07:55:40;;;;;;;59.92;32.50;;;;;;;;;;4932479;29;20130;-91
2022/04/23 07:58:09;;;;;;;62.85;33.67;;;;;;;;;;4915846;29;20102;-92
2022/04/23 08:00:36;;;;;;;58.63;32.67;;;;;;;;;;4912873;29;20055;-90
2022/04/23 08:03:03;;;;;;;60.42;31.73;;;;;;;;;;4928502;29;20072;-91
2022/04/23 08:05:30;;;;;;;63.08;32.90;;;;;;;;;;4905176;29;20051;-91
2022/04/23 08:07:58;;;;;;;67.45;32.53;;;;;;;;;;4919306;29;20060;-92
2022/04/23 08:10:25;;;;;;;65.65;32.85;;;;;;;;;;4929726;29;20082;-87
2022/04/23 08:12:57;;;;;;;62.67;32.08;;;;;;;;;;4913194;29;20110;-92
2022/04/23 08:15:26;;;;;;;58.78;31.33;;;;;;;;;;4930793;29;20047;-91
2022/04/23 08:17:53;;;;;;;57.03;31.13;;;;;;;;;;4917325;29;20413;-92
2022/04/23 08:20:30;;;;;;;59.28;31.17;;;;;;;;;;4933342;29;20820;-93
2022/04/23 08:22:57;;;;;;;61.33;30.67;;;;;;;;;;4935140;29;20051;-93
2022/04/23 08:25:24;;;;;;;58.38;31.42;;;;;;;;;;4935470;29;20071;-93
2022/04/23 08:30:42;;;;;;;57.33;31.70;;;;;;;;;;4929365;29;20596;-90
2022/04/23 08:33:09;;;;;;;61.97;31.45;;;;;;;;;;4922937;29;20044;-93
2022/04/23 08:35:36;;;;;;;66.00;31.30;;;;;;;;;;4934423;29;20060;-94
2022/04/23 08:38:04;;;;;;;70.00;31.15;;;;;;;;;;4918714;29;20051;-91
2022/04/23 08:40:40;;;;;;;56.95;30.17;;;;;;;;;;4916602;29;20500;-90
2022/04/23 08:43:08;;;;;;;50.15;27.77;;;;;;;;;;4919995;29;20048;-89
2022/04/23 08:45:39;;;;;;;47.63;27.73;;;;;;;;;;4931473;29;20508;-87
2022/04/23 08:48:14;;;;;;;55.72;27.17;;;;;;;;;;4931548;29;20295;-88
2022/04/23 08:50:43;;;;;;;50.17;26.38;;;;;;;;;;4931425;29;20468;-89
2022/04/23 08:53:20;;;;;;;;;;;;;;;;;;4933029;29;20119;-89
2022/04/23 08:55:57;;;;;;;52.97;27.45;;;;;;;;;;4932696;29;21363;-92
2022/04/23 08:58:24;;;;;;;49.08;25.92;;;;;;;;;;4915840;29;20122;-92
2022/04/23 09:00:51;;;;;;;44.95;24.77;;;;;;;;;;4916345;29;20424;-89
2022/04/23 09:03:17;;;;;;;44.70;24.90;;;;;;;;;;4915853;29;20150;-87
2022/04/23 09:05:50;;;;;;;43.63;25.88;;;;;;;;;;4916326;29;20079;-89
2022/04/23 09:08:17;;;;;;;47.72;25.15;;;;;;;;;;4929437;29;20059;-88
2022/04/23 09:10:54;;;;;;;44.78;24.95;;;;;;;;;;4933494;29;20095;-89
2022/04/23 09:13:26;;;;;;;43.75;23.95;;;;;;;;;;4910191;29;20046;-89
2022/04/23 09:24:18;;;;;;;39.38;24.63;;;;;;;;;;4931884;29;20450;-88
2022/04/23 09:27:06;;;;;;;47.65;25.50;;;;;;;;;;4920082;29;20051;-92
2022/04/23 09:29:33;;;;;;;43.40;24.65;;;;;;;;;;4932202;29;20058;-92
2022/04/23 09:32:19;;;;;;;44.78;23.77;;;;;;;;;;4916435;29;20051;-93
2022/04/23 09:34:46;;;;;;;43.63;24.60;;;;;;;;;;4931670;29;20055;-92
2022/04/23 09:38:11;;;;;;;46.13;23.67;;;;;;;;;;4916689;29;20071;-91
2022/04/23 09:40:19;;;;;;;38.80;23.25;;;;;;;;;;4931272;29;20103;-93
2022/04/23 09:43:00;;;;;;;40.78;24.30;;;;;;;;;;4928620;29;20059;-94
2022/04/23 09:45:30;;;;;;;45.50;23.85;;;;;;;;;;4930580;29;20048;-95
2022/04/23 09:48:10;;;;;;;46.40;24.40;;;;;;;;;;4935160;29;20060;-94
2022/04/23 09:50:42;;;;;;;44.78;23.95;;;;;;;;;;4916883;29;20052;-93
2022/04/23 09:53:17;;;;;;;36.95;22.92;;;;;;;;;;4927284;29;20056;-93
2022/04/23 09:55:51;;;;;;;37.58;22.75;;;;;;;;;;4917405;29;20516;-92
2022/04/23 09:58:18;;;;;;;43.47;23.17;;;;;;;;;;4929372;29;20039;-92
2022/04/23 10:00:49;;;;;;;37.85;20.63;;;;;;;;;;4934570;29;20056;-89
2022/04/23 10:03:16;;;;;;;36.10;20.23;;;;;;;;;;4924265;29;20048;-93
2022/04/23 10:05:52;;;;;;;29.20;19.83;;;;;;;;;;4938878;29;20094;-92
2022/04/23 10:08:24;;;;;;;29.17;19.33;;;;;;;;;;4927734;29;20068;-90
2022/04/23 10:11:11;;;;;;;35.90;20.73;;;;;;;;;;4928363;29;20052;-92
2022/04/23 10:13:42;;;;;;;42.90;20.23;;;;;;;;;;4927684;29;20071;-90
2022/04/23 10:16:10;;;;;;;35.35;19.42;;;;;;;;;;4913756;29;20477;-86
2022/04/23 10:18:42;;;;;;;32.25;20.75;;;;;;;;;;4933340;29;20107;-88
2022/04/23 10:21:14;;;;;;;35.95;20.95;;;;;;;;;;4929693;29;20131;-90
2022/04/23 10:23:49;;;;;;;32.05;20.10;;;;;;;;;;4933604;29;20051;-88
2022/04/23 10:26:38;;;;;;;36.22;18.92;;;;;;;;;;4905274;29;20055;-88
2022/04/23 10:29:10;;;;;;;30.55;18.58;;;;;;;;;;4931861;29;20119;-90
2022/04/23 10:31:37;;;;;;;31.10;19.40;;;;;;;;;;4931530;29;20048;-92
2022/04/23 10:34:05;;;;;;;36.03;20.65;;;;;;;;;;4926379;29;20048;-90
2022/04/23 10:36:31;;;;;;;31.70;19.90;;;;;;;;;;4929984;29;20368;-93
2022/04/23 10:39:32;;;;;;;38.08;20.45;;;;;;;;;;4892335;29;20174;-82
2022/04/23 10:42:02;;;;;;;29.77;18.42;;;;;;;;;;4878485;29;20341;-82
2022/04/23 10:44:30;;;;;;;31.92;18.00;;;;;;;;;;4887270;29;20211;-81
2022/04/23 10:46:58;;;;;;;31.20;18.33;;;;;;;;;;4888758;29;20184;-82
2022/04/23 10:49:25;;;;;;;30.88;18.70;;;;;;;;;;4880639;29;20061;-84
2022/04/23 10:51:57;;;;;;;28.85;18.80;;;;;;;;;;4887693;29;20155;-82
2022/04/23 10:54:47;;;;;;;31.83;17.45;;;;;;;;;;4886346;29;20136;-82
2022/04/23 10:57:14;;;;;;;30.33;18.17;;;;;;;;;;4881705;29;20085;-82
2022/04/23 10:59:45;;;;;;;32.75;17.60;;;;;;;;;;4875088;29;20570;-82
2022/04/23 11:02:14;;;;;;;27.13;17.42;;;;;;;;;;4873840;29;20049;-84
2022/04/23 11:14:36;;;;;;;24.60;17.17;;;;;;;;;;4873266;29;20270;-81
2022/04/23 11:17:03;;;;;;;23.50;16.55;;;;;;;;;;4888470;29;20095;-84
2022/04/23 11:19:30;;;;;;;22.85;15.90;;;;;;;;;;4924533;29;20432;-85
2022/04/23 11:21:57;;;;;;;22.70;16.40;;;;;;;;;;4928242;29;20130;-83
2022/04/23 11:24:24;;;;;;;22.50;14.95;;;;;;;;;;4926212;29;20055;-85
2022/04/23 11:26:51;;;;;;;22.08;15.68;;;;;;;;;;4927663;29;20083;-82
2022/04/23 11:29:19;;;;;;;25.63;14.90;;;;;;;;;;4923988;29;20131;-82
2022/04/23 11:31:58;;;;;;;28.20;15.45;;;;;;;;;;4926109;29;20151;-83
2022/04/23 11:34:27;;;;;;;20.92;15.20;;;;;;;;;;4923190;29;20413;-82
2022/04/23 11:36:54;;;;;;;17.55;13.18;;;;;;;;;;4927880;29;20074;-84
2022/04/23 11:39:27;;;;;;;27.10;14.98;;;;;;;;;;4924646;29;20555;-84
2022/04/23 11:41:54;;;;;;;15.95;12.88;;;;;;;;;;4927135;29;20075;-85
2022/04/23 11:44:45;;;;;;;21.05;13.80;;;;;;;;;;4926189;29;20083;-86
2022/04/23 11:47:10;;;;;;;;;;;;;;;;;;4926822;29;20139;-85
2022/04/23 11:49:37;;;;;;;18.77;13.52;;;;;;;;;;4925843;29;19985;-84
2022/04/23 11:52:05;;;;;;;20.45;14.60;;;;;;;;;;4927084;29;20044;-83
2022/04/23 11:54:37;;;;;;;16.83;12.98;;;;;;;;;;4928381;29;20048;-84
2022/04/23 11:57:10;;;;;;;17.50;12.32;;;;;;;;;;4928017;29;20079;-83
2022/04/23 11:59:42;;;;;;;20.90;13.65;;;;;;;;;;4930381;29;20091;-85
2022/04/23 12:02:21;;;;;;;20.63;13.60;;;;;;;;;;4929940;29;20082;-83
2022/04/23 12:04:49;;;;;;;18.38;13.00;;;;;;;;;;4926750;29;20055;-85
2022/04/23 12:07:17;;;;;;;18.38;11.82;;;;;;;;;;4929357;29;20110;-85
2022/04/23 12:09:50;;;;;;;16.38;12.75;;;;;;;;;;4930464;29;20275;-84
2022/04/23 12:12:21;;;;;;;16.75;12.68;;;;;;;;;;4927819;29;20095;-83
2022/04/23 12:14:53;;;;;;;19.90;12.75;;;;;;;;;;4929652;29;20094;-84
2022/04/23 12:17:29;;;;;;;21.17;12.00;;;;;;;;;;4928524;29;20055;-84
2022/04/23 12:19:58;;;;;;;22.13;13.57;;;;;;;;;;4931481;29;20067;-83
2022/04/23 12:22:29;;;;;;;17.30;11.60;;;;;;;;;;4930476;29;20135;-83
2022/04/23 12:25:18;;;;;;;18.88;12.77;;;;;;;;;;4928768;29;20143;-81
2022/04/23 12:28:01;;;;;;;16.75;12.15;;;;;;;;;;4924144;29;20048;-82
2022/04/23 12:42:11;;;;;;;19.75;12.35;;;;;;;;;;4929541;29;20127;-83
2022/04/23 12:44:42;;;;;;;18.02;12.30;;;;;;;;;;4930041;29;20134;-84
2022/04/23 12:47:12;;;;;;;16.70;10.80;;;;;;;;;;4930772;29;20111;-84
2022/04/23 12:49:57;;;;;;;15.13;10.50;;;;;;;;;;4930297;29;20055;-81
2022/04/23 12:52:32;;;;;;;17.40;10.27;;;;;;;;;;4929391;29;20115;-84
2022/04/23 12:55:18;;;;;;;12.63;9.50;;;;;;;;;;4928747;29;20051;-82
2022/04/23 12:57:47;;;;;;;12.73;9.88;;;;;;;;;;4926512;29;20048;-82
2022/04/23 13:00:24;;;;;;;11.85;9.20;;;;;;;;;;4928491;29;20047;-82
2022/04/23 13:02:57;;;;;;;13.25;10.18;;;;;;;;;;4927813;29;20457;-84
2022/04/23 13:05:28;;;;;;;13.23;9.77;;;;;;;;;;4926831;29;20056;-81
2022/04/23 13:10:40;;;;;;;17.60;10.55;;;;;;;;;;4927383;29;20497;-85
2022/04/23 13:13:07;;;;;;;13.20;11.02;;;;;;;;;;4928448;29;20103;-84
2022/04/23 13:15:35;;;;;;;13.68;10.45;;;;;;;;;;4928192;29;20142;-84
2022/04/23 13:18:03;;;;;;;12.87;9.83;;;;;;;;;;4928384;29;20079;-82
2022/04/23 13:20:30;;;;;;;18.58;10.13;;;;;;;;;;4931350;29;20354;-82
2022/04/23 13:22:58;;;;;;;14.10;9.63;;;;;;;;;;4929894;29;20087;-83
2022/04/23 13:25:25;;;;;;;15.20;9.60;;;;;;;;;;4931949;29;20474;-83
2022/04/23 13:27:52;;;;;;;13.95;8.60;;;;;;;;;;4923596;29;20083;-84
2022/04/23 13:30:19;;;;;;;16.50;9.13;;;;;;;;;;4930918;29;20127;-83
2022/04/23 13:32:46;;;;;;;14.07;8.75;;;;;;;;;;4906739;29;20103;-81
2022/04/23 13:35:14;;;;;;;14.77;9.98;;;;;;;;;;4929522;29;20051;-83
2022/04/23 13:37:42;;;;;;;11.25;9.48;;;;;;;;;;4934338;29;20110;-81
2022/04/23 13:40:10;;;;;;;14.52;9.68;;;;;;;;;;4914642;29;20138;-83
2022/04/23 13:42:38;;;;;;;12.98;10.32;;;;;;;;;;4916943;29;20052;-82
2022/04/23 13:45:06;;;;;;;18.70;9.18;;;;;;;;;;4931796;28;20071;-83
2022/04/23 13:47:35;;;;;;;14.02;9.70;;;;;;;;;;4927988;29;20060;-83
2022/04/23 13:50:04;;;;;;;16.17;10.13;;;;;;;;;;4922696;29;20483;-82
2022/04/23 13:52:31;;;;;;;16.40;10.43;;;;;;;;;;4929236;29;20070;-82
2022/04/23 13:54:58;;;;;;;16.30;10.23;;;;;;;;;;4924349;29;20112;-79
2022/04/23 13:57:25;;;;;;;14.23;9.93;;;;;;;;;;4928597;29;20064;-81
2022/04/23 13:59:51;;;;;;;13.00;9.23;;;;;;;;;;4932030;29;20063;-83
2022/04/23 14:10:34;;;;;;;15.13;10.15;;;;;;;;;;4921854;29;20171;-81
2022/04/23 14:13:01;;;;;;;13.88;9.82;;;;;;;;;;4933410;29;20524;-80
2022/04/23 14:15:28;;;;;;;11.88;9.02;;;;;;;;;;4931613;29;20043;-83
2022/04/23 14:17:58;;;;;;;11.77;8.60;;;;;;;;;;4915995;29;20050;-83
2022/04/23 14:20:25;;;;;;;11.45;8.07;;;;;;;;;;4928016;29;20051;-82
2022/04/23 14:22:52;;;;;;;13.27;8.52;;;;;;;;;;4928590;29;20048;-84
2022/04/23 14:25:18;;;;;;;9.73;6.55;;;;;;;;;;4927991;29;20489;-84
2022/04/23 14:27:45;;;;;;;9.43;7.38;;;;;;;;;;4929100;28;20075;-84
2022/04/23 14:30:12;;;;;;;11.20;7.68;;;;;;;;;;4929579;29;20134;-84
2022/04/23 14:32:38;;;;;;;9.00;6.75;;;;;;;;;;4932887;29;20580;-84
2022/04/23 14:35:05;;;;;;;9.55;7.22;;;;;;;;;;4930526;29;20051;-84
2022/04/23 14:37:33;;;;;;;14.25;10.73;;;;;;;;;;4911891;29;20086;-84
2022/04/23 14:39:59;;;;;;;17.65;11.52;;;;;;;;;;4928438;29;20579;-82
2022/04/23 14:42:27;;;;;;;17.35;11.98;;;;;;;;;;4926964;29;20528;-82
2022/04/23 14:44:54;;;;;;;20.37;12.70;;;;;;;;;;4930619;28;20512;-83
2022/04/23 14:47:20;;;;;;;22.88;13.90;;;;;;;;;;4925518;29;20147;-82
2022/04/23 14:49:47;;;;;;;16.35;13.73;;;;;;;;;;4928070;29;20047;-82
2022/04/23 14:54:59;;;;;;;15.18;12.05;;;;;;;;;;4928134;29;20139;-82
2022/04/23 14:57:25;;;;;;;18.83;12.02;;;;;;;;;;4927659;29;20051;-83
2022/04/23 14:59:53;;;;;;;15.32;9.57;;;;;;;;;;4909054;29;20083;-83
2022/04/23 15:02:19;;;;;;;17.00;12.17;;;;;;;;;;4932307;29;20082;-82
2022/04/23 15:04:46;;;;;;;22.45;12.73;;;;;;;;;;4938190;29;20061;-83
2022/04/23 15:07:13;;;;;;;24.40;14.38;;;;;;;;;;4922566;29;20133;-82
2022/04/23 15:09:39;;;;;;;19.58;14.13;;;;;;;;;;4940037;28;20071;-81
2022/04/23 15:12:13;;;;;;;23.95;13.68;;;;;;;;;;4940347;29;20588;-81
2022/04/23 15:14:43;;;;;;;18.83;12.30;;;;;;;;;;4925986;29;20138;-82
2022/04/23 15:17:09;;;;;;;22.85;11.80;;;;;;;;;;4936744;29;20119;-82
2022/04/23 15:19:37;;;;;;;12.20;10.85;;;;;;;;;;4923882;29;20055;-81
2022/04/23 15:22:08;;;;;;;15.70;10.95;;;;;;;;;;4918441;29;20041;-81
2022/04/23 15:24:37;;;;;;;15.48;10.73;;;;;;;;;;4920323;29;20491;-83
2022/04/23 15:27:05;;;;;;;14.05;10.77;;;;;;;;;;4920488;29;20048;-82
2022/04/23 15:29:32;;;;;;;12.00;9.55;;;;;;;;;;4921798;29;20055;-82
2022/04/23 15:32:00;;;;;;;14.82;10.95;;;;;;;;;;4916937;29;20059;-82
2022/04/23 15:34:27;;;;;;;21.42;12.02;;;;;;;;;;4927852;29;20051;-82
2022/04/23 15:36:55;;;;;;;18.90;11.60;;;;;;;;;;4930453;29;20052;-82
2022/04/23 15:39:22;;;;;;;15.57;11.85;;;;;;;;;;4924302;29;20051;-81
2022/04/23 15:41:58;;;;;;;14.98;11.30;;;;;;;;;;4929357;29;20055;-83
2022/04/23 15:44:25;;;;;;;17.13;11.52;;;;;;;;;;4927131;29;20101;-84
2022/04/23 15:46:52;;;;;;;17.98;12.68;;;;;;;;;;4922750;29;20099;-81
2022/04/23 15:49:20;;;;;;;16.60;12.20;;;;;;;;;;4929256;29;20048;-83
2022/04/23 15:51:47;;;;;;;16.48;10.40;;;;;;;;;;4927102;29;20058;-80
2022/04/23 15:54:14;;;;;;;12.45;10.77;;;;;;;;;;4916261;29;20044;-81
2022/04/23 15:56:43;;;;;;;16.48;11.10;;;;;;;;;;4927111;29;20094;-81
2022/04/23 15:59:10;;;;;;;14.65;10.32;;;;;;;;;;4912089;29;20205;-82
2022/04/23 16:01:37;;;;;;;14.15;10.82;;;;;;;;;;4917004;29;20053;-82
2022/04/23 16:04:05;;;;;;;17.63;10.90;;;;;;;;;;4925304;29;20512;-81
2022/04/23 16:06:33;;;;;;;20.52;14.50;;;;;;;;;;4922455;29;20051;-82
2022/04/23 16:09:00;;;;;;;20.20;15.63;;;;;;;;;;4930585;29;20043;-83
2022/04/23 16:11:26;;;;;;;22.48;14.40;;;;;;;;;;4924206;29;20052;-83
2022/04/23 16:13:53;;;;;;;21.38;16.85;;;;;;;;;;4925417;29;20048;-82
2022/04/23 16:16:40;;;;;;;23.05;16.77;;;;;;;;;;4930357;29;20103;-81
2022/04/23 16:19:07;;;;;;;28.30;19.70;;;;;;;;;;4911075;29;20119;-82
2022/04/23 16:21:33;;;;;;;35.65;21.73;;;;;;;;;;4923258;29;20071;-82
2022/04/23 16:24:00;;;;;;;29.38;20.55;;;;;;;;;;4927450;29;20179;-85
2022/04/23 16:26:26;;;;;;;36.13;19.25;;;;;;;;;;4926886;29;20051;-86
2022/04/23 16:28:55;;;;;;;37.42;23.90;;;;;;;;;;4909744;29;20051;-84
2022/04/23 16:31:23;;;;;;;29.98;20.63;;;;;;;;;;4917980;29;20058;-83
2022/04/23 16:33:51;;;;;;;38.60;21.83;;;;;;;;;;4922915;29;20567;-83
2022/04/23 16:47:22;;;;;;;39.50;25.67;;;;;;;;;;4928641;28;20125;-86
2022/04/23 16:49:49;;;;;;;40.25;24.42;;;;;;;;;;4923591;29;20056;-83
2022/04/23 16:52:16;;;;;;;38.33;24.10;;;;;;;;;;4915947;29;20126;-83
2022/04/23 16:54:42;;;;;;;37.67;24.15;;;;;;;;;;4913520;29;20052;-79
2022/04/23 16:57:09;;;;;;;38.83;22.95;;;;;;;;;;4913861;29;20099;-83
2022/04/23 16:59:36;;;;;;;44.95;24.35;;;;;;;;;;4915998;29;20088;-84
2022/04/23 17:02:03;;;;;;;37.88;23.70;;;;;;;;;;4934527;29;20051;-85
2022/04/23 17:04:30;;;;;;;42.10;24.58;;;;;;;;;;4933016;29;20070;-82
2022/04/23 17:06:57;;;;;;;38.55;23.48;;;;;;;;;;4928641;29;20588;-82
2022/04/23 17:09:24;;;;;;;40.90;23.10;;;;;;;;;;4918947;29;20060;-85
2022/04/23 17:11:51;;;;;;;39.35;23.30;;;;;;;;;;4933413;29;20044;-83
2022/04/23 17:14:18;;;;;;;40.50;24.85;;;;;;;;;;4933719;29;20051;-84
2022/04/23 17:16:46;;;;;;;39.25;23.17;;;;;;;;;;4933445;29;20055;-84
2022/04/23 17:19:13;;;;;;;40.67;23.27;;;;;;;;;;4933068;29;20131;-82
2022/04/23 17:21:40;;;;;;;34.45;23.60;;;;;;;;;;4937377;29;20043;-84
2022/04/23 17:24:07;;;;;;;34.60;22.60;;;;;;;;;;4935366;28;20094;-86
2022/04/23 17:26:34;;;;;;;43.00;23.15;;;;;;;;;;4933105;29;20103;-89
2022/04/23 17:29:01;;;;;;;40.25;23.63;;;;;;;;;;4934392;29;20080;-83
2022/04/23 17:31:27;;;;;;;35.75;23.58;;;;;;;;;;4933140;29;20471;-83
2022/04/23 17:33:54;;;;;;;43.08;23.45;;;;;;;;;;4930221;28;20048;-84
2022/04/23 17:36:20;;;;;;;37.38;23.23;;;;;;;;;;4932391;29;20075;-84
2022/04/23 17:38:56;;;;;;;43.90;25.10;;;;;;;;;;4903872;29;20055;-84
2022/04/23 17:41:27;;;;;;;39.00;24.00;;;;;;;;;;4902250;29;20135;-83
2022/04/23 17:43:55;;;;;;;43.88;25.52;;;;;;;;;;4932158;29;20146;-82
2022/04/23 17:46:22;;;;;;;43.60;25.00;;;;;;;;;;4922471;29;20094;-83
2022/04/23 17:48:49;;;;;;;39.80;24.35;;;;;;;;;;4930704;29;20292;-84
2022/04/23 17:51:16;;;;;;;41.40;25.08;;;;;;;;;;4927725;29;20171;-85
2022/04/23 17:53:43;;;;;;;48.00;24.52;;;;;;;;;;4929316;29;20556;-87
2022/04/23 17:56:11;;;;;;;42.85;23.83;;;;;;;;;;4931170;29;20039;-87
2022/04/23 17:58:38;;;;;;;39.38;24.45;;;;;;;;;;4928005;29;20114;-88
2022/04/23 18:09:26;;;;;;;35.75;23.40;;;;;;;;;;4931183;29;20056;-88
2022/04/23 18:11:53;;;;;;;38.42;24.27;;;;;;;;;;4913997;29;20512;-87
2022/04/23 18:14:20;;;;;;;42.03;24.65;;;;;;;;;;4907795;29;20052;-88
2022/04/23 18:16:46;;;;;;;39.25;25.17;;;;;;;;;;4931852;29;20079;-88
2022/04/23 18:19:13;;;;;;;38.58;24.27;;;;;;;;;;4914358;29;20229;-88
2022/04/23 18:21:40;;;;;;;44.55;25.10;;;;;;;;;;4927602;29;20094;-89
2022/04/23 18:24:08;;;;;;;45.33;25.30;;;;;;;;;;4931333;29;20043;-88
2022/04/23 18:26:36;;;;;;;42.53;25.60;;;;;;;;;;4914289;29;20143;-89
2022/04/23 18:29:04;;;;;;;45.72;25.40;;;;;;;;;;4929005;29;20044;-88
2022/04/23 18:31:31;;;;;;;50.50;25.33;;;;;;;;;;4930975;29;20047;-87
2022/04/23 18:34:02;;;;;;;43.33;25.55;;;;;;;;;;4929346;29;20095;-89
2022/04/23 18:36:29;;;;;;;43.97;27.55;;;;;;;;;;4931722;29;20071;-88
2022/04/23 18:38:55;;;;;;;46.67;28.60;;;;;;;;;;4930917;29;20210;-88
2022/04/23 18:41:26;;;;;;;48.80;28.77;;;;;;;;;;4927871;29;21110;-88
2022/04/23 18:43:55;;;;;;;49.88;27.85;;;;;;;;;;4929908;29;20083;-88
2022/04/23 18:46:28;;;;;;;47.72;26.83;;;;;;;;;;4928288;29;20114;-88
2022/04/23 18:48:55;;;;;;;45.75;28.25;;;;;;;;;;4931051;29;20052;-88
2022/04/23 18:51:21;;;;;;;47.60;27.20;;;;;;;;;;4908331;29;20127;-89
2022/04/23 18:53:48;;;;;;;50.17;28.13;;;;;;;;;;4911546;29;20095;-88
2022/04/23 18:56:15;;;;;;;49.35;27.98;;;;;;;;;;4928548;29;20082;-87
2022/04/23 18:58:41;;;;;;;50.90;27.40;;;;;;;;;;4914691;29;20134;-88
2022/04/23 19:01:11;;;;;;;49.97;27.38;;;;;;;;;;4925331;29;20143;-86
2022/04/23 19:03:38;;;;;;;58.55;28.33;;;;;;;;;;4909375;29;20059;-87
2022/04/23 19:06:07;;;;;;;46.70;28.20;;;;;;;;;;4919276;29;20074;-85
2022/04/23 19:08:35;;;;;;;49.95;27.25;;;;;;;;;;4928890;29;20166;-86
2022/04/23 19:11:05;;;;;;;43.57;26.93;;;;;;;;;;4928705;29;20886;-86
2022/04/23 19:13:32;;;;;;;42.35;26.58;;;;;;;;;;4925372;29;20040;-87
2022/04/23 19:15:59;;;;;;;49.70;28.60;;;;;;;;;;4928921;29;20048;-86
2022/04/23 19:18:26;;;;;;;51.95;29.25;;;;;;;;;;4909696;29;20066;-85
2022/04/23 19:29:08;;;;;;;59.85;32.63;;;;;;;;;;4928065;29;20143;-87
2022/04/23 19:31:35;;;;;;;52.95;33.17;;;;;;;;;;4925039;29;20153;-88
2022/04/23 19:34:03;;;;;;;64.43;33.97;;;;;;;;;;4924914;29;20051;-88
2022/04/23 19:36:34;;;;;;;64.82;34.22;;;;;;;;;;4929017;29;20052;-85
2022/04/23 19:39:06;;;;;;;54.30;33.33;;;;;;;;;;4925365;29;20404;-87
2022/04/23 19:41:33;;;;;;;57.95;33.03;;;;;;;;;;4926028;29;20071;-87
2022/04/23 19:44:01;;;;;;;54.70;34.10;;;;;;;;;;4926485;29;20086;-86
2022/04/23 19:46:28;;;;;;;62.10;34.30;;;;;;;;;;4927282;29;20052;-87
2022/04/23 19:48:55;;;;;;;62.58;35.05;;;;;;;;;;4930886;29;20052;-87
2022/04/23 19:51:22;;;;;;;59.05;34.08;;;;;;;;;;4923795;29;20138;-87
2022/04/23 19:53:49;;;;;;;57.10;34.15;;;;;;;;;;4924742;29;20084;-88
2022/04/23 19:56:16;;;;;;;59.75;34.80;;;;;;;;;;4925790;29;20131;-88
2022/04/23 19:58:42;;;;;;;58.22;35.10;;;;;;;;;;4927234;29;20245;-86
2022/04/23 20:01:10;;;;;;;58.63;35.05;;;;;;;;;;4923249;29;20520;-86
2022/04/23 20:03:37;;;;;;;64.43;35.63;;;;;;;;;;4908455;29;20682;-86
2022/04/23 20:06:04;;;;;;;64.15;34.83;;;;;;;;;;4927019;29;20083;-85
2022/04/23 20:08:34;;;;;;;60.42;35.80;;;;;;;;;;4913261;29;20505;-88
2022/04/23 20:11:02;;;;;;;56.78;36.15;;;;;;;;;;4927669;29;20083;-86
2022/04/23 20:13:28;;;;;;;65.07;36.25;;;;;;;;;;4923355;29;20520;-87
2022/04/23 20:15:55;;;;;;;67.88;36.90;;;;;;;;;;4913756;29;20580;-84
2022/04/23 20:18:21;;;;;;;60.58;36.25;;;;;;;;;;4931746;29;20048;-86
2022/04/23 20:20:48;;;;;;;59.08;37.17;;;;;;;;;;4930793;29;20051;-86
2022/04/23 20:23:15;;;;;;;62.95;37.03;;;;;;;;;;4924764;29;20076;-86
2022/04/23 20:25:41;;;;;;;65.60;36.85;;;;;;;;;;4929110;29;20079;-87
2022/04/23 20:28:08;;;;;;;62.55;37.08;;;;;;;;;;4931389;29;20397;-86
2022/04/23 20:30:35;;;;;;;63.08;37.08;;;;;;;;;;4930801;29;20051;-88
2022/04/23 20:33:02;;;;;;;60.88;38.13;;;;;;;;;;4911463;29;20129;-87
2022/04/23 20:38:22;;;;;;;70.10;39.47;;;;;;;;;;4932002;29;20525;-87
2022/04/23 20:40:52;;;;;;;66.28;39.20;;;;;;;;;;4936900;29;20082;-87
2022/04/23 20:43:19;;;;;;;69.90;39.50;;;;;;;;;;4928696;29;20048;-87
2022/04/23 20:45:46;;;;;;;67.03;39.90;;;;;;;;;;4931965;29;20528;-88
2022/04/23 20:48:18;;;;;;;70.80;40.40;;;;;;;;;;4930883;29;20603;-88
2022/04/23 20:50:46;;;;;;;67.80;39.50;;;;;;;;;;4933649;29;20086;-84
2022/04/23 20:53:16;;;;;;;65.00;39.73;;;;;;;;;;4932818;29;20053;-87
2022/04/23 20:55:53;;;;;;;64.38;38.80;;;;;;;;;;4921752;29;20078;-87
2022/04/23 20:58:21;;;;;;;71.75;41.78;;;;;;;;;;4929635;29;20078;-88
2022/04/23 21:00:50;;;;;;;69.10;41.63;;;;;;;;;;4933647;29;20063;-85
2022/04/23 21:03:18;;;;;;;68.13;40.65;;;;;;;;;;4933553;29;20079;-87
2022/04/23 21:05:47;;;;;;;75.30;41.35;;;;;;;;;;4931508;29;20047;-84
2022/04/23 21:08:14;;;;;;;67.20;40.78;;;;;;;;;;4932179;29;20123;-86
2022/04/23 21:10:41;;;;;;;66.07;42.25;;;;;;;;;;4930219;29;20051;-83
2022/04/23 21:13:11;;;;;;;74.40;42.25;;;;;;;;;;4929935;29;20044;-86
2022/04/23 21:15:39;;;;;;;67.95;42.08;;;;;;;;;;4931176;29;20700;-84
2022/04/23 21:18:06;;;;;;;74.68;42.97;;;;;;;;;;4920417;29;20123;-86
2022/04/23 21:20:33;;;;;;;75.53;45.08;;;;;;;;;;4929238;29;20051;-85
2022/04/23 21:23:00;;;;;;;70.13;43.25;;;;;;;;;;4933066;29;20075;-85
2022/04/23 21:25:26;;;;;;;78.47;44.92;;;;;;;;;;4921610;29;20060;-87
2022/04/23 21:27:53;;;;;;;77.43;45.20;;;;;;;;;;4927664;29;20052;-84
2022/04/23 21:30:24;;;;;;;75.20;45.33;;;;;;;;;;4927616;29;20063;-85
2022/04/23 21:32:50;;;;;;;79.65;45.70;;;;;;;;;;4928536;29;20051;-85
2022/04/23 21:35:18;;;;;;;72.53;45.15;;;;;;;;;;4918752;29;20067;-85
2022/04/23 21:37:45;;;;;;;77.75;47.53;;;;;;;;;;4930520;29;20094;-87
2022/04/23 21:40:12;;;;;;;77.55;46.47;;;;;;;;;;4931140;29;20071;-87
2022/04/23 21:45:23;;;;;;;79.50;48.60;;;;;;;;;;4924037;29;20476;-86
2022/04/23 21:47:51;;;;;;;79.38;49.03;;;;;;;;;;4930437;29;20071;-86
2022/04/23 21:50:18;;;;;;;88.13;48.53;;;;;;;;;;4927007;29;20063;-86
2022/04/23 21:52:48;;;;;;;77.72;48.90;;;;;;;;;;4927915;29;20062;-86
2022/04/23 21:55:15;;;;;;;90.30;52.25;;;;;;;;;;4925707;29;20084;-89